Time;durP1;ratioP1;P1;durP2;ratioP2;P2;SDS_P1;SDS_P2;PMS_P1;PMS_P2;Temp;Humidity;BMP_temperature;BMP_pressure;BME280_temperature;BME280_humidity;BME280_pressure;Samples;Min_cycle;Max_cycle;Signal;HPM_P1;HPM_P2
2023/10/10 00:00:54;;;;;;;1.83;1.15;;;;;;;5.02;71.13;98521.19;5068363;28;20040;-36
2023/10/10 00:03:21;;;;;;;1.15;0.90;;;;;;;5.09;70.58;98519.25;5067563;28;20041;-37
2023/10/10 00:05:47;;;;;;;1.73;1.05;;;;;;;4.95;71.10;98486.22;5068474;28;20131;-37
2023/10/10 00:08:15;;;;;;;1.70;1.20;;;;;;;5.21;71.17;98516.31;5051774;28;20141;-38
2023/10/10 00:10:49;;;;;;;4.13;1.48;;;;;;;5.25;70.90;98522.19;5019198;28;20520;-37
2023/10/10 00:13:16;;;;;;;1.58;1.30;;;;;;;5.21;70.81;98526.63;5069940;28;20040;-38
2023/10/10 00:15:49;;;;;;;1.58;1.08;;;;;;;5.13;71.35;98533.72;5068334;28;20043;-37
2023/10/10 00:18:19;;;;;;;1.98;1.10;;;;;;;4.95;71.13;98539.44;5069051;28;20052;-37
2023/10/10 00:21:06;;;;;;;;;;;;;;;5.00;71.78;98535.84;5068511;28;20066;-37
2023/10/10 00:23:39;;;;;;;1.80;1.10;;;;;;;5.04;71.81;98534.84;5066922;28;20038;-38
2023/10/10 00:26:05;;;;;;;1.55;1.10;;;;;;;5.07;71.49;98541.66;5050574;28;20048;-37
2023/10/10 00:28:34;;;;;;;1.55;1.02;;;;;;;5.09;71.66;98534.72;5048968;28;20047;-36
2023/10/10 00:31:03;;;;;;;3.10;1.07;;;;;;;5.05;71.54;98540.84;5085683;28;20044;-38
2023/10/10 00:33:31;;;;;;;1.60;1.17;;;;;;;5.11;71.80;98546.69;5069868;28;20335;-38
2023/10/10 00:35:58;;;;;;;1.88;1.35;;;;;;;4.96;71.81;98508.50;5048694;28;20070;-38
2023/10/10 00:38:29;;;;;;;2.15;1.48;;;;;;;5.21;72.40;98538.66;5065954;28;20040;-37
2023/10/10 00:41:03;;;;;;;3.20;1.60;;;;;;;5.13;72.20;98530.34;5066968;28;20135;-39
2023/10/10 00:43:31;;;;;;;2.95;1.30;;;;;;;5.10;72.13;98544.13;5049390;28;20079;-37
2023/10/10 00:45:57;;;;;;;1.77;1.23;;;;;;;5.13;71.64;98539.72;5068268;28;20041;-37
2023/10/10 00:48:29;;;;;;;1.50;1.10;;;;;;;5.09;71.55;98545.03;5067324;28;20059;-38
2023/10/10 00:51:11;;;;;;;1.50;1.25;;;;;;;5.12;71.80;98552.69;5067438;28;20044;-37
2023/10/10 00:53:39;;;;;;;2.00;1.48;;;;;;;5.21;71.56;98554.13;5068509;28;20059;-37
2023/10/10 00:56:05;;;;;;;2.13;1.27;;;;;;;5.22;72.00;98554.06;5051086;28;20044;-36
2023/10/10 00:58:39;;;;;;;2.63;1.42;;;;;;;5.22;71.21;98546.34;5050819;28;20427;-37
2023/10/10 01:01:14;;;;;;;1.58;1.27;;;;;;;5.26;71.55;98552.25;5035334;28;20392;-36
2023/10/10 01:03:45;;;;;;;1.88;1.42;;;;;;;4.71;71.31;98493.84;5067419;28;20049;-37
2023/10/10 01:06:24;;;;;;;1.85;1.08;;;;;;;4.89;71.33;98548.22;5067709;28;20032;-37
2023/10/10 01:08:54;;;;;;;4.03;1.48;;;;;;;4.95;71.20;98552.31;5081663;28;20048;-37
2023/10/10 01:11:19;;;;;;;;;;;;;;;5.04;71.62;98558.03;5067982;28;20052;-37
2023/10/10 01:13:45;;;;;;;2.17;1.45;;;;;;;4.97;71.43;98563.44;5083982;28;19916;-35
2023/10/10 01:16:12;;;;;;;1.92;1.35;;;;;;;5.07;71.47;98562.28;5068704;28;20040;-37
2023/10/10 01:21:50;;;;;;;1.48;1.02;;;;;;;4.88;71.75;98554.25;5045106;28;20087;-36
2023/10/10 01:24:18;;;;;;;2.55;1.20;;;;;;;4.97;72.32;98563.44;5051715;28;20044;-37
2023/10/10 01:26:45;;;;;;;2.67;1.42;;;;;;;4.90;72.31;98538.75;5050481;28;20098;-37
2023/10/10 01:29:40;;;;;;;1.60;1.02;;;;;;;4.95;72.68;98567.78;5050490;28;20048;-37
2023/10/10 01:32:02;;;;;;;1.25;0.98;;;;;;;4.97;72.15;98566.84;5049368;28;20447;-37
2023/10/10 01:34:31;;;;;;;1.45;1.13;;;;;;;4.88;72.54;98572.25;5053363;28;20044;-36
2023/10/10 01:37:14;;;;;;;1.10;0.98;;;;;;;4.94;72.31;98576.38;5067171;28;20071;-36
2023/10/10 01:39:41;;;;;;;1.52;1.10;;;;;;;5.02;72.83;98572.69;5066543;28;20569;-38
2023/10/10 01:42:11;;;;;;;2.15;1.10;;;;;;;5.10;71.92;98577.63;5073263;28;20067;-38
2023/10/10 01:44:37;;;;;;;1.20;0.95;;;;;;;4.97;72.27;98548.81;5070709;28;20052;-37
2023/10/10 01:47:03;;;;;;;1.30;1.00;;;;;;;4.86;72.05;98545.72;5068467;28;20211;-37
2023/10/10 01:49:29;;;;;;;1.23;0.90;;;;;;;5.13;72.64;98575.78;5052230;28;20094;-38
2023/10/10 01:51:55;;;;;;;1.90;1.25;;;;;;;5.18;72.53;98582.56;5073381;28;20048;-37
2023/10/10 01:54:29;;;;;;;1.52;1.25;;;;;;;4.81;72.64;98513.28;5063086;28;20040;-37
2023/10/10 01:56:55;;;;;;;2.47;1.00;;;;;;;5.16;72.50;98577.44;5084188;28;20047;-36
2023/10/10 01:59:25;;;;;;;4.43;1.30;;;;;;;5.07;71.99;98585.47;5069685;28;20047;-37
2023/10/10 02:01:57;;;;;;;2.38;1.00;;;;;;;4.99;72.26;98559.91;5066333;28;20450;-35
2023/10/10 02:04:28;;;;;;;1.48;1.08;;;;;;;5.00;72.09;98558.19;5075858;28;20036;-37
2023/10/10 02:06:56;;;;;;;1.60;1.20;;;;;;;5.03;71.65;98589.84;5068283;28;20071;-37
2023/10/10 02:11:54;;;;;;;2.03;1.30;;;;;;;4.79;72.29;98590.56;5067878;28;20036;-37
2023/10/10 02:14:25;;;;;;;1.52;1.00;;;;;;;4.78;72.44;98596.59;5050426;28;20049;-37
2023/10/10 02:16:54;;;;;;;0.98;0.80;;;;;;;4.79;72.37;98600.00;5050211;28;20134;-37
2023/10/10 02:19:28;;;;;;;3.20;1.13;;;;;;;4.82;72.81;98592.19;5033941;28;20044;-36
2023/10/10 02:22:22;;;;;;;1.40;1.10;;;;;;;4.69;72.88;98595.13;5054288;28;20378;-37
2023/10/10 02:28:03;;;;;;;1.98;1.15;;;;;;;4.74;72.58;98604.44;5041603;28;20517;-36
2023/10/10 02:30:36;;;;;;;2.73;1.53;;;;;;;4.64;73.01;98603.88;5067181;28;20088;-37
2023/10/10 02:38:31;;;;;;;2.17;1.45;;;;;;;4.59;73.19;98585.13;5071731;28;20423;-37
2023/10/10 02:43:54;;;;;;;1.85;1.40;;;;;;;4.74;73.84;98601.88;5069146;28;20054;-38
2023/10/10 02:46:28;;;;;;;;;;;;;;;4.69;73.65;98609.72;5071222;28;20062;-36
2023/10/10 02:48:55;;;;;;;2.17;1.33;;;;;;;4.55;74.00;98607.50;5053520;28;19970;-38
2023/10/10 02:51:22;;;;;;;1.58;1.20;;;;;;;4.54;74.39;98618.72;5055540;28;20519;-36
2023/10/10 02:53:48;;;;;;;1.77;1.40;;;;;;;4.54;74.30;98612.72;5071409;28;20036;-37
2023/10/10 02:56:18;;;;;;;1.73;1.30;;;;;;;4.69;74.31;98608.00;5080016;28;20043;-38
2023/10/10 02:58:45;;;;;;;2.58;1.10;;;;;;;4.64;74.40;98585.84;5070069;28;20059;-38
2023/10/10 03:01:40;;;;;;;2.22;1.20;;;;;;;4.92;74.32;98614.25;5067872;28;20040;-38
2023/10/10 03:03:57;;;;;;;1.95;1.20;;;;;;;4.98;74.15;98614.03;5069466;28;20096;-36
2023/10/10 03:06:28;;;;;;;2.42;1.38;;;;;;;5.01;74.39;98617.38;5072548;28;20047;-36
2023/10/10 03:09:07;;;;;;;2.67;1.50;;;;;;;5.06;74.19;98615.53;5076552;28;20044;-36
2023/10/10 03:11:39;;;;;;;1.55;1.08;;;;;;;5.01;73.68;98611.38;5070380;28;20047;-36
2023/10/10 03:14:08;;;;;;;1.58;1.05;;;;;;;4.93;73.79;98621.91;5070786;28;20153;-38
2023/10/10 03:16:59;;;;;;;2.03;1.37;;;;;;;4.90;73.45;98621.16;5053255;28;20048;-38
2023/10/10 03:19:28;;;;;;;2.08;1.35;;;;;;;4.98;73.91;98632.91;5069564;28;20368;-36
2023/10/10 03:22:22;;;;;;;1.65;1.20;;;;;;;4.99;73.47;98626.88;5053159;28;20053;-37
2023/10/10 03:27:50;;;;;;;1.80;1.02;;;;;;;4.66;73.79;98592.63;5061595;28;20286;-37
2023/10/10 03:30:21;;;;;;;1.80;1.40;;;;;;;4.87;73.80;98637.53;5078098;28;20130;-37
2023/10/10 03:33:09;;;;;;;1.70;1.17;;;;;;;4.82;73.86;98635.97;5073513;28;20051;-37
2023/10/10 03:35:52;;;;;;;2.42;1.52;;;;;;;4.92;73.42;98640.81;5073713;28;20070;-37
2023/10/10 03:41:26;;;;;;;6.03;1.65;;;;;;;5.00;73.34;98645.75;5082423;28;20070;-38
2023/10/10 05:25:23;;;;;;;2.85;1.80;;;;;;;4.71;75.11;98699.78;5067804;28;20512;-37
2023/10/10 05:27:51;;;;;;;2.53;1.45;;;;;;;5.15;75.88;98770.69;5067446;28;20044;-38
2023/10/10 05:30:25;;;;;;;2.95;1.70;;;;;;;5.24;75.34;98760.97;5068141;28;20056;-37
2023/10/10 05:33:03;;;;;;;3.97;1.67;;;;;;;5.36;75.57;98770.09;5066585;28;20423;-37
2023/10/10 05:35:47;;;;;;;2.13;1.40;;;;;;;5.38;74.77;98769.19;5068155;28;20043;-38
2023/10/10 05:38:15;;;;;;;3.28;1.63;;;;;;;5.44;74.94;98774.16;5049755;28;20156;-38
2023/10/10 05:40:43;;;;;;;2.90;1.65;;;;;;;5.53;74.56;98775.63;5066672;28;20073;-38
2023/10/10 05:43:15;;;;;;;2.22;1.50;;;;;;;5.60;74.40;98786.63;5066891;28;20037;-36
2023/10/10 05:45:45;;;;;;;1.40;1.13;;;;;;;5.59;74.50;98782.34;5067723;28;20494;-37
2023/10/10 05:48:12;;;;;;;1.60;1.23;;;;;;;5.62;74.09;98782.25;5064423;28;20524;-38
2023/10/10 05:50:40;;;;;;;2.80;1.80;;;;;;;5.45;74.14;98757.81;5087049;28;20044;-38
2023/10/10 05:53:07;;;;;;;2.50;1.60;;;;;;;5.69;73.78;98787.19;5081385;28;20071;-36
2023/10/10 05:55:35;;;;;;;2.50;1.27;;;;;;;5.64;73.18;98791.66;5081913;28;20201;-37
2023/10/10 05:58:05;;;;;;;3.05;1.80;;;;;;;5.44;73.64;98763.84;5077021;28;20036;-38
2023/10/10 06:00:36;;;;;;;3.28;1.80;;;;;;;5.64;73.43;98799.38;5078648;28;20595;-37
2023/10/10 06:03:06;;;;;;;3.53;2.63;;;;;;;5.67;73.05;98798.44;5086717;28;20044;-38
2023/10/10 06:05:33;;;;;;;3.20;1.90;;;;;;;5.76;72.86;98809.31;5089740;28;20040;-37
2023/10/10 06:08:01;;;;;;;1.60;1.25;;;;;;;5.77;73.12;98808.44;5088140;28;20047;-37
2023/10/10 06:10:31;;;;;;;4.43;2.95;;;;;;;5.58;73.02;98773.78;5091949;28;20036;-38
2023/10/10 06:13:11;;;;;;;2.00;1.25;;;;;;;5.78;72.93;98809.28;5083388;28;20108;-37
2023/10/10 06:15:38;;;;;;;1.65;1.27;;;;;;;5.52;72.05;98795.41;5071659;28;20051;-37
2023/10/10 06:18:13;;;;;;;1.92;1.13;;;;;;;5.50;71.31;98807.50;5070039;28;20044;-37
2023/10/10 06:20:44;;;;;;;2.40;1.30;;;;;;;5.07;71.62;98756.31;5071189;28;20086;-38
2023/10/10 06:23:20;;;;;;;1.80;1.25;;;;;;;5.27;70.66;98811.59;5071139;28;20048;-39
2023/10/10 06:25:47;;;;;;;3.78;1.40;;;;;;;5.41;70.81;98817.22;5070052;28;20155;-37
2023/10/10 06:28:47;;;;;;;3.13;2.10;;;;;;;5.50;70.85;98810.06;5070947;28;20048;-37
2023/10/10 06:31:10;;;;;;;1.60;1.20;;;;;;;5.60;71.24;98815.81;5069128;28;20075;-37
2023/10/10 06:33:40;;;;;;;1.42;1.10;;;;;;;5.71;71.24;98833.56;5070907;28;20112;-39
2023/10/10 06:38:46;;;;;;;;;;;;;;;5.85;70.38;98834.88;5081899;28;20040;-38
2023/10/10 06:41:17;;;;;;;3.47;2.30;;;;;;;5.82;70.17;98829.78;5091695;28;19916;-38
2023/10/10 06:43:46;;;;;;;3.03;1.10;;;;;;;5.32;69.84;98766.78;5080236;28;20036;-38
2023/10/10 06:46:17;;;;;;;1.55;1.20;;;;;;;5.47;70.37;98783.53;5070991;28;20616;-38
2023/10/10 06:48:50;;;;;;;1.50;1.10;;;;;;;5.79;69.60;98847.09;5068660;28;20052;-38
2023/10/10 06:51:22;;;;;;;1.88;1.30;;;;;;;5.65;69.85;98846.66;5069850;28;20040;-39
2023/10/10 06:53:54;;;;;;;4.95;1.33;;;;;;;5.62;69.69;98841.56;5070813;28;20040;-38
2023/10/10 06:56:43;;;;;;;3.05;1.50;;;;;;;5.70;70.01;98847.34;5074270;28;20054;-37
2023/10/10 06:59:09;;;;;;;2.70;1.95;;;;;;;5.74;69.49;98852.38;5072386;28;20048;-38
2023/10/10 07:01:35;;;;;;;4.20;1.73;;;;;;;5.78;69.84;98851.41;5091216;28;20032;-37
2023/10/10 07:04:04;;;;;;;2.03;1.50;;;;;;;5.71;69.99;98830.97;5051661;28;20040;-38
2023/10/10 07:06:30;;;;;;;3.03;1.90;;;;;;;5.88;70.34;98855.44;5070375;28;20060;-37
2023/10/10 07:09:14;;;;;;;2.15;1.50;;;;;;;5.94;69.80;98867.31;5068514;28;20078;-36
2023/10/10 07:11:42;;;;;;;3.53;1.35;;;;;;;5.80;70.28;98867.69;5045709;28;20122;-38
2023/10/10 07:14:10;;;;;;;2.88;1.23;;;;;;;5.78;70.35;98859.13;5079461;28;20491;-38
2023/10/10 07:16:42;;;;;;;2.28;1.50;;;;;;;5.66;69.36;98828.53;5069196;28;20040;-37
2023/10/10 07:19:19;;;;;;;6.30;1.75;;;;;;;5.84;69.66;98864.13;5071279;28;20044;-37
2023/10/10 07:21:46;;;;;;;3.13;1.60;;;;;;;5.81;69.50;98866.78;5075482;28;20037;-36
2023/10/10 07:24:15;;;;;;;2.22;1.50;;;;;;;5.83;69.92;98870.16;5070780;28;20036;-37
2023/10/10 07:26:42;;;;;;;2.92;1.92;;;;;;;5.94;69.52;98875.06;5068421;28;20044;-37
2023/10/10 07:29:28;;;;;;;6.05;2.00;;;;;;;6.01;69.17;98870.56;5075707;28;20048;-36
2023/10/10 07:34:42;;;;;;;2.25;1.65;;;;;;;5.84;69.05;98876.19;5085674;28;20135;-37
2023/10/10 07:37:09;;;;;;;2.50;1.45;;;;;;;5.97;68.64;98875.81;5078561;28;20123;-37
2023/10/10 07:39:55;;;;;;;2.63;1.10;;;;;;;5.87;68.49;98848.59;5088455;28;20052;-37
2023/10/10 07:42:34;;;;;;;2.53;1.70;;;;;;;6.16;68.57;98883.88;5078924;28;20511;-37
2023/10/10 07:45:13;;;;;;;2.30;1.35;;;;;;;6.23;68.54;98893.09;5069409;28;20040;-38
2023/10/10 07:50:26;;;;;;;2.22;1.38;;;;;;;6.34;67.49;98891.06;5072863;28;20045;-38
2023/10/10 07:52:55;;;;;;;2.88;1.67;;;;;;;6.33;67.71;98898.88;5068869;28;20051;-37
2023/10/10 07:55:22;;;;;;;5.00;1.50;;;;;;;6.37;67.47;98897.88;5069713;28;20231;-41
2023/10/10 07:58:01;;;;;;;2.70;2.17;;;;;;;6.29;67.38;98871.44;5068995;28;20040;-38
2023/10/10 08:00:38;;;;;;;3.55;1.73;;;;;;;6.41;67.53;98896.88;5063381;28;20059;-38
2023/10/10 08:03:12;;;;;;;2.10;1.27;;;;;;;6.48;67.15;98898.41;5090414;28;20543;-38
2023/10/10 08:05:42;;;;;;;2.38;1.55;;;;;;;6.39;66.74;98863.38;5077929;28;20473;-37
2023/10/10 08:08:13;;;;;;;1.98;1.48;;;;;;;6.52;66.92;98870.75;5085242;28;20035;-39
2023/10/10 08:10:39;;;;;;;5.05;2.97;;;;;;;6.80;66.58;98907.75;5070997;28;20070;-38
2023/10/10 08:13:11;;;;;;;4.43;2.58;;;;;;;6.73;66.50;98878.66;5089464;28;20040;-38
2023/10/10 08:16:01;;;;;;;1.98;1.25;;;;;;;6.92;65.95;98904.75;5080324;28;20035;-37
2023/10/10 08:21:12;;;;;;;1.90;1.27;;;;;;;6.76;64.81;98919.88;5087321;28;20040;-38
2023/10/10 08:23:49;;;;;;;2.47;1.10;;;;;;;6.86;64.75;98906.66;5088746;28;20075;-38
2023/10/10 08:26:19;;;;;;;2.00;1.40;;;;;;;7.07;64.36;98914.59;5056483;28;20043;-38
2023/10/10 08:28:46;;;;;;;2.85;1.25;;;;;;;7.39;64.38;98921.28;5073933;28;20047;-37
2023/10/10 08:31:13;;;;;;;1.98;1.25;;;;;;;7.68;63.57;98911.69;5054429;28;20131;-37
2023/10/10 08:33:52;;;;;;;5.53;2.13;;;;;;;7.76;63.36;98913.09;5068151;28;20040;-39
2023/10/10 08:36:24;;;;;;;1.90;1.35;;;;;;;7.76;63.59;98925.19;5068112;28;20051;-37
2023/10/10 08:39:00;;;;;;;3.35;1.10;;;;;;;7.48;63.23;98892.53;5066769;28;20039;-38
2023/10/10 08:41:28;;;;;;;1.90;1.30;;;;;;;7.62;62.96;98923.94;5067836;28;20051;-37
2023/10/10 08:44:06;;;;;;;1.83;1.00;;;;;;;7.59;63.17;98930.94;5066634;28;20050;-39
2023/10/10 08:46:40;;;;;;;2.65;1.10;;;;;;;7.60;63.08;98940.41;5068289;28;20040;-38
2023/10/10 08:49:07;;;;;;;1.58;1.30;;;;;;;7.30;62.90;98887.13;5067038;28;20137;-38
2023/10/10 08:51:34;;;;;;;3.35;1.85;;;;;;;7.46;62.57;98935.69;5066652;28;20035;-38
2023/10/10 08:54:02;;;;;;;1.95;1.50;;;;;;;7.51;62.59;98938.13;5070964;28;20035;-37
2023/10/10 08:56:37;;;;;;;6.00;2.30;;;;;;;7.58;62.31;98944.78;5072815;28;20500;-37
2023/10/10 08:59:08;;;;;;;4.32;1.70;;;;;;;7.54;62.44;98949.19;5068897;28;20036;-38
2023/10/10 09:01:35;;;;;;;2.08;1.45;;;;;;;7.55;62.56;98950.06;5077628;28;20040;-38
2023/10/10 09:04:03;;;;;;;10.88;2.95;;;;;;;7.23;62.84;98892.50;5065114;28;20415;-38
2023/10/10 09:07:42;;;;;;;8.85;3.53;;;;;;;7.54;62.09;98956.13;5074156;28;20109;-37
2023/10/10 09:09:37;;;;;;;2.20;1.20;;;;;;;7.61;61.62;98955.88;5049956;28;20789;-38
2023/10/10 09:12:15;;;;;;;1.75;1.23;;;;;;;7.66;61.40;98966.06;5062265;28;20060;-38
2023/10/10 09:14:50;;;;;;;4.43;1.20;;;;;;;7.70;61.67;98961.63;5061890;28;20376;-37
2023/10/10 09:17:32;;;;;;;7.28;2.80;;;;;;;7.76;61.20;98970.00;5062735;28;20312;-38
2023/10/10 09:19:58;;;;;;;5.53;2.10;;;;;;;7.66;60.93;98971.22;5061747;28;20036;-38
2023/10/10 09:22:34;;;;;;;5.47;2.20;;;;;;;7.61;61.16;98962.78;5065358;28;20044;-41
2023/10/10 09:25:17;;;;;;;3.22;1.88;;;;;;;7.43;60.76;98960.81;5068696;28;20040;-36
2023/10/10 09:28:06;;;;;;;1.83;1.40;;;;;;;7.32;61.30;98974.09;5073722;28;20043;-37
2023/10/10 09:30:40;;;;;;;3.38;1.85;;;;;;;7.41;61.07;98976.38;5080041;28;20047;-38
2023/10/10 09:35:53;;;;;;;1.77;1.17;;;;;;;7.89;60.00;98978.22;5072239;28;20036;-36
2023/10/10 09:38:22;;;;;;;2.53;1.10;;;;;;;8.12;58.87;98973.06;5060629;28;20039;-37
2023/10/10 09:41:10;;;;;;;4.88;1.13;;;;;;;8.58;58.52;98972.28;5075700;28;20478;-37
2023/10/10 09:43:49;;;;;;;2.08;1.10;;;;;;;8.43;57.58;98965.88;5058966;28;20048;-39
2023/10/10 09:46:24;;;;;;;4.93;1.50;;;;;;;8.39;58.06;98982.44;5051262;28;20047;-37
2023/10/10 09:54:16;;;;;;;2.45;1.20;;;;;;;8.11;58.47;98983.50;5075929;28;20137;-38
2023/10/10 09:56:46;;;;;;;2.70;1.02;;;;;;;7.73;57.78;98946.00;5080888;28;20511;-38
2023/10/10 09:59:14;;;;;;;6.57;1.67;;;;;;;8.06;58.31;98981.03;5072810;28;20058;-38
2023/10/10 10:01:45;;;;;;;2.17;1.40;;;;;;;8.13;58.33;98985.09;5077389;28;20039;-36
2023/10/10 10:04:18;;;;;;;3.45;1.30;;;;;;;7.97;58.58;98987.38;5076314;28;20173;-36
2023/10/10 10:06:51;;;;;;;3.20;1.40;;;;;;;7.91;58.75;98990.19;5069967;28;20561;-39
2023/10/10 10:09:34;;;;;;;2.47;1.00;;;;;;;7.89;58.93;98986.81;5051361;28;20047;-37
2023/10/10 10:12:41;;;;;;;1.70;1.10;;;;;;;8.02;58.97;98990.66;5067764;28;20040;-38
2023/10/10 10:15:16;;;;;;;2.47;1.17;;;;;;;8.32;58.42;98986.16;5080307;28;20039;-37
2023/10/10 10:18:11;;;;;;;3.28;1.27;;;;;;;8.31;57.80;98996.59;5066778;28;20045;-37
2023/10/10 10:20:47;;;;;;;2.88;1.30;;;;;;;8.25;57.31;98986.41;5075424;28;20031;-35
2023/10/10 10:23:26;;;;;;;2.45;1.20;;;;;;;8.35;57.59;98993.84;5078794;28;20047;-36
2023/10/10 10:25:54;;;;;;;2.38;1.23;;;;;;;8.21;57.79;98962.38;5075313;28;20094;-36
2023/10/10 10:28:28;;;;;;;2.35;1.38;;;;;;;8.42;57.54;98994.47;5079438;28;20853;-46
2023/10/10 10:30:54;;;;;;;1.50;1.08;;;;;;;8.68;57.04;99002.13;5073020;28;20040;-37
2023/10/10 10:33:24;;;;;;;2.58;1.13;;;;;;;8.66;56.63;98972.81;5072333;28;20048;-37
2023/10/10 10:38:39;;;;;;;2.78;1.35;;;;;;;8.93;56.97;99009.78;5078130;28;20097;-35
2023/10/10 10:41:07;;;;;;;7.07;1.30;;;;;;;9.23;56.73;99011.19;5074951;28;20108;-36
2023/10/10 10:43:41;;;;;;;2.25;1.50;;;;;;;10.65;54.43;99010.34;5081040;28;20127;-36
2023/10/10 10:46:15;;;;;;;2.15;1.20;;;;;;;10.63;54.17;99005.22;5071407;28;20519;-38
2023/10/10 10:48:47;;;;;;;1.75;0.90;;;;;;;10.26;53.66;99011.22;5079048;28;20401;-39
2023/10/10 10:51:25;;;;;;;2.33;1.30;;;;;;;10.06;53.67;99009.44;5079240;28;20051;-39
2023/10/10 10:54:00;;;;;;;5.10;1.10;;;;;;;10.19;53.57;99010.66;5079128;28;20127;-37
2023/10/10 10:59:12;;;;;;;2.72;1.20;;;;;;;10.31;52.01;99017.03;5079463;28;20135;-37
2023/10/10 11:01:42;;;;;;;2.67;1.00;;;;;;;9.88;52.45;98980.84;5074658;28;20040;-38
2023/10/10 11:04:14;;;;;;;4.55;1.05;;;;;;;9.82;52.61;99023.47;5072737;28;20044;-38
2023/10/10 11:07:03;;;;;;;2.03;1.20;;;;;;;9.56;52.96;99040.13;5073380;28;20094;-37
2023/10/10 11:09:31;;;;;;;1.42;0.88;;;;;;;9.03;54.46;99042.25;5077485;28;20039;-38
2023/10/10 11:12:02;;;;;;;1.67;0.90;;;;;;;8.67;56.59;99039.28;5081736;28;20478;-37
2023/10/10 11:14:29;;;;;;;1.42;0.68;;;;;;;8.67;58.14;99048.81;5063444;28;20041;-38
2023/10/10 11:16:56;;;;;;;3.08;2.22;;;;;;;8.87;58.70;99049.75;5083145;28;20052;-38
2023/10/10 11:19:38;;;;;;;1.55;1.00;;;;;;;9.10;58.31;99051.47;5044700;28;20148;-38
2023/10/10 11:22:05;;;;;;;2.00;0.90;;;;;;;9.11;58.02;99052.28;5081592;28;20127;-39
2023/10/10 11:24:34;;;;;;;2.05;1.20;;;;;;;8.86;58.61;99065.34;5079377;28;20050;-37
2023/10/10 11:29:44;;;;;;;2.45;1.10;;;;;;;8.26;59.46;99053.69;5081328;28;20044;-37
2023/10/10 11:32:15;;;;;;;2.50;1.00;;;;;;;8.08;59.54;99062.09;5080199;28;20036;-37
2023/10/10 11:34:42;;;;;;;3.78;2.40;;;;;;;8.00;59.61;99061.50;5064835;28;20036;-36
2023/10/10 11:37:15;;;;;;;2.47;1.50;;;;;;;7.82;60.13;99075.06;5078188;28;20115;-38
2023/10/10 11:39:47;;;;;;;2.63;1.25;;;;;;;7.46;60.60;99039.16;5079938;28;20084;-38
2023/10/10 11:42:30;;;;;;;3.28;1.30;;;;;;;8.00;61.21;99077.91;5078473;28;20028;-38
2023/10/10 11:45:04;;;;;;;3.65;1.50;;;;;;;8.14;60.38;99082.59;5050483;28;20105;-36
2023/10/10 11:47:42;;;;;;;8.38;3.25;;;;;;;8.12;61.01;99080.94;5079294;28;20086;-36
2023/10/10 11:50:15;;;;;;;3.40;1.40;;;;;;;8.18;60.89;99079.00;5082554;28;20566;-38
2023/10/10 11:52:57;;;;;;;2.35;1.50;;;;;;;8.14;60.44;99080.00;5074301;28;20078;-36
2023/10/10 11:55:24;;;;;;;3.70;1.52;;;;;;;8.09;60.57;99081.91;5074033;28;20089;-37
2023/10/10 11:57:51;;;;;;;3.17;1.35;;;;;;;8.04;60.83;99094.16;5074749;28;20032;-39
2023/10/10 12:00:28;;;;;;;3.97;1.67;;;;;;;7.92;60.82;99097.16;5080105;28;20510;-38
2023/10/10 12:02:58;;;;;;;2.65;1.10;;;;;;;7.83;60.39;99093.13;5074111;28;20085;-36
2023/10/10 12:08:01;;;;;;;2.35;0.98;;;;;;;7.80;59.90;99105.34;5071910;28;20068;-37
2023/10/10 12:13:33;;;;;;;4.70;1.20;;;;;;;7.97;59.24;99116.81;5053382;28;21556;-37
2023/10/10 12:16:10;;;;;;;1.73;1.00;;;;;;;8.06;58.92;99126.84;5075251;28;20109;-38
2023/10/10 12:18:44;;;;;;;1.35;0.70;;;;;;;7.76;58.64;99122.66;5072729;28;20534;-36
2023/10/10 12:21:18;;;;;;;1.42;0.75;;;;;;;7.69;58.86;99136.72;5068740;28;20075;-36
2023/10/10 12:23:47;;;;;;;1.85;1.00;;;;;;;7.61;59.48;99107.63;5065841;28;21048;-52
2023/10/10 12:26:13;;;;;;;1.45;0.80;;;;;;;7.66;59.44;99093.66;5076661;28;20252;-39
2023/10/10 12:28:39;;;;;;;3.50;1.10;;;;;;;7.60;59.96;99104.22;5076194;28;20753;-37
2023/10/10 12:31:08;;;;;;;1.55;0.93;;;;;;;7.76;60.14;99132.19;5077275;28;20071;-37
2023/10/10 12:33:37;;;;;;;1.15;0.65;;;;;;;7.63;59.91;99140.34;5081742;28;20575;-36
2023/10/10 12:36:09;;;;;;;3.47;0.90;;;;;;;7.10;61.31;99115.25;5073484;28;20048;-38
2023/10/10 12:38:37;;;;;;;3.85;1.40;;;;;;;7.19;62.77;99149.44;5073268;28;20470;-37
2023/10/10 12:41:05;;;;;;;2.40;0.90;;;;;;;7.20;63.30;99158.88;5079205;28;20498;-37
2023/10/10 12:43:31;;;;;;;4.03;1.00;;;;;;;6.89;64.37;99149.47;5048590;28;20048;-37
2023/10/10 12:46:00;;;;;;;2.70;1.20;;;;;;;6.82;65.18;99154.78;5075970;28;20040;-37
2023/10/10 12:48:28;;;;;;;1.02;0.75;;;;;;;6.74;65.18;99163.66;5065917;28;20125;-35
2023/10/10 12:50:54;;;;;;;2.17;0.85;;;;;;;6.54;65.88;99159.00;5072257;28;20117;-36
2023/10/10 12:53:20;;;;;;;1.60;0.90;;;;;;;6.36;65.99;99150.03;5074555;28;20052;-37
2023/10/10 12:55:52;;;;;;;2.47;1.08;;;;;;;6.34;66.09;99156.94;5072303;28;20056;-36
2023/10/10 12:58:20;;;;;;;2.47;1.30;;;;;;;6.28;66.67;99167.41;5074145;28;20040;-37
2023/10/10 13:00:50;;;;;;;2.00;1.20;;;;;;;6.28;67.31;99157.09;5079354;28;20051;-37
2023/10/10 13:03:23;;;;;;;2.88;1.60;;;;;;;6.26;66.98;99161.47;5069153;28;20040;-38
2023/10/10 13:05:52;;;;;;;1.80;0.90;;;;;;;6.28;66.79;99169.19;5065865;28;20080;-37
2023/10/10 13:08:22;;;;;;;3.08;1.05;;;;;;;6.17;66.48;99160.84;5074178;28;20659;-37
2023/10/10 13:11:01;;;;;;;2.92;1.30;;;;;;;5.90;66.82;99110.78;5068149;28;20044;-36
2023/10/10 13:13:31;;;;;;;1.65;1.08;;;;;;;6.33;66.18;99178.47;5069749;28;20095;-37
2023/10/10 13:18:42;;;;;;;1.33;0.90;;;;;;;6.40;66.28;99186.91;5072534;28;20101;-36
2023/10/10 13:21:08;;;;;;;1.05;0.90;;;;;;;6.49;65.94;99189.25;5076563;28;20040;-36
2023/10/10 13:23:37;;;;;;;2.40;1.00;;;;;;;6.37;65.11;99194.75;5048532;28;20044;-36
2023/10/10 13:26:06;;;;;;;1.55;0.90;;;;;;;6.38;65.22;99199.84;5078568;28;20535;-36
2023/10/10 13:28:32;;;;;;;1.50;0.80;;;;;;;6.00;65.16;99129.44;5073948;28;20036;-37
2023/10/10 13:30:58;;;;;;;1.05;0.73;;;;;;;6.34;64.95;99197.41;5056891;28;20122;-37
2023/10/10 13:33:24;;;;;;;2.78;1.00;;;;;;;6.38;64.47;99206.78;5077005;28;20040;-37
2023/10/10 13:35:50;;;;;;;1.80;1.27;;;;;;;6.62;64.46;99206.16;5078867;28;20162;-36
2023/10/10 13:38:15;;;;;;;1.20;1.10;;;;;;;6.74;64.33;99197.22;5081461;28;20041;-45
2023/10/10 13:40:46;;;;;;;1.42;1.00;;;;;;;6.89;63.38;99212.31;5070016;28;20045;-38
2023/10/10 13:43:18;;;;;;;1.83;1.15;;;;;;;6.85;62.88;99215.88;5059761;28;20508;-36
2023/10/10 13:45:47;;;;;;;3.30;1.25;;;;;;;6.77;61.97;99225.56;5064289;28;20072;-37
2023/10/10 13:48:23;;;;;;;1.75;1.13;;;;;;;6.59;62.18;99180.41;5081618;28;20039;-37
2023/10/10 13:50:54;;;;;;;1.73;1.13;;;;;;;6.82;62.13;99228.88;5057768;28;20049;-36
2023/10/10 13:53:20;;;;;;;2.13;1.25;;;;;;;6.66;62.95;99225.84;5078674;28;20121;-37
2023/10/10 13:55:46;;;;;;;1.73;0.85;;;;;;;6.59;62.93;99228.63;5066578;28;20047;-37
2023/10/10 13:58:13;;;;;;;1.63;0.98;;;;;;;6.46;62.31;99233.25;5087522;28;20040;-37
2023/10/10 14:00:42;;;;;;;5.43;1.02;;;;;;;6.35;62.96;99241.25;5066488;28;20435;-36
2023/10/10 14:03:08;;;;;;;1.70;0.80;;;;;;;6.25;62.88;99250.09;5072496;28;20059;-37
2023/10/10 14:05:36;;;;;;;1.05;0.70;;;;;;;5.94;62.92;99243.97;5071661;28;20518;-36
2023/10/10 14:08:07;;;;;;;2.47;1.10;;;;;;;5.87;62.68;99248.41;5066158;28;20496;-37
2023/10/10 14:10:41;;;;;;;1.75;0.90;;;;;;;5.82;63.40;99254.50;5067397;28;20036;-37
2023/10/10 14:13:20;;;;;;;1.80;0.98;;;;;;;5.84;62.82;99250.19;5070691;28;20028;-37
2023/10/10 14:15:56;;;;;;;2.25;0.80;;;;;;;5.91;62.72;99255.19;5086762;28;20679;-37
2023/10/10 14:18:26;;;;;;;2.30;1.00;;;;;;;5.91;63.32;99251.78;5086817;28;20028;-38
2023/10/10 14:20:53;;;;;;;3.95;1.00;;;;;;;5.93;63.36;99257.75;5068388;28;20132;-36
2023/10/10 14:23:25;;;;;;;3.20;1.20;;;;;;;5.90;63.86;99269.00;5048825;28;20033;-36
2023/10/10 14:26:02;;;;;;;3.85;1.83;;;;;;;5.88;64.84;99283.66;5070316;28;20051;-37
2023/10/10 14:28:29;;;;;;;3.55;1.60;;;;;;;5.84;65.23;99279.41;5053836;28;20068;-37
2023/10/10 14:30:57;;;;;;;3.80;1.77;;;;;;;5.73;65.80;99283.09;5069454;28;20045;-37
2023/10/10 14:33:25;;;;;;;2.58;1.30;;;;;;;5.62;66.09;99282.47;5070061;28;20520;-37
2023/10/10 14:35:51;;;;;;;2.33;1.20;;;;;;;5.50;66.09;99287.00;5074980;28;20126;-37
2023/10/10 14:38:17;;;;;;;2.03;1.00;;;;;;;5.40;66.55;99293.22;5060217;28;20140;-38
2023/10/10 14:40:43;;;;;;;4.78;1.88;;;;;;;5.31;66.55;99295.97;5037052;28;20397;-38
2023/10/10 14:43:10;;;;;;;2.85;1.50;;;;;;;5.18;66.66;99302.25;5072890;28;20089;-37